Time;durP1;ratioP1;P1;durP2;ratioP2;P2;SDS_P1;SDS_P2;PMS_P1;PMS_P2;Temp;Humidity;BMP_temperature;BMP_pressure;BME280_temperature;BME280_humidity;BME280_pressure;Samples;Min_cycle;Max_cycle;Signal;HPM_P1;HPM_P2
2022/09/03 00:01:50;;;;;;;2.15;0.57;;;;;;;17.50;51.07;101747.81;6207712;28;20245;-72
2022/09/03 00:05:20;;;;;;;0.82;0.70;;;;;;;17.52;51.29;101740.34;6212397;28;20529;-72
2022/09/03 00:08:47;;;;;;;0.52;0.40;;;;;;;17.46;51.13;101738.19;6215049;28;20233;-73
2022/09/03 00:12:10;;;;;;;0.85;0.85;;;;;;;17.51;51.66;101739.47;6243535;28;20592;-73
2022/09/03 00:15:34;;;;;;;0.80;0.80;;;;;;;17.49;51.43;101737.88;6232830;28;21238;-73
2022/09/03 00:19:01;;;;;;;1.33;1.23;;;;;;;17.40;51.51;101741.56;6222009;28;20220;-72
2022/09/03 00:22:27;;;;;;;0.80;0.60;;;;;;;17.41;51.76;101740.56;6215745;28;20229;-74
2022/09/03 00:25:53;;;;;;;8.07;2.22;;;;;;;17.34;52.12;101734.88;6218131;28;20217;-73
2022/09/03 00:29:18;;;;;;;0.38;0.35;;;;;;;17.34;51.85;101739.47;6213451;28;20225;-73
2022/09/03 00:32:45;;;;;;;0.40;0.40;;;;;;;17.27;52.17;101736.53;6233968;28;20225;-72
2022/09/03 00:36:14;;;;;;;0.90;0.57;;;;;;;17.26;52.20;101742.13;6222020;28;20340;-73
2022/09/03 00:39:36;;;;;;;0.68;0.50;;;;;;;17.27;52.36;101749.31;6219460;28;20251;-72
2022/09/03 00:43:05;;;;;;;1.80;1.38;;;;;;;17.22;52.38;101749.78;6233164;28;20236;-73
2022/09/03 00:46:35;;;;;;;8.38;0.80;;;;;;;17.18;52.35;101740.22;6232735;28;20216;-73
2022/09/03 00:50:08;;;;;;;1.42;0.65;;;;;;;17.11;52.61;101741.84;6229845;28;20228;-73
2022/09/03 00:53:39;;;;;;;0.38;0.38;;;;;;;17.02;52.62;101737.31;6235703;28;20417;-72
2022/09/03 00:57:24;;;;;;;1.20;0.57;;;;;;;16.92;53.40;101733.00;6235235;28;20236;-73
2022/09/03 01:00:45;;;;;;;0.57;0.57;;;;;;;17.02;52.98;101740.06;6226985;28;20233;-72
2022/09/03 01:04:33;;;;;;;1.20;0.93;;;;;;;16.99;52.86;101739.53;6235956;28;20589;-73
2022/09/03 01:08:05;;;;;;;1.27;1.17;;;;;;;17.00;52.88;101743.97;6228846;28;20233;-72
2022/09/03 01:11:38;;;;;;;0.77;0.47;;;;;;;17.09;52.71;101743.88;6214960;28;20232;-73
2022/09/03 01:15:06;;;;;;;0.50;0.50;;;;;;;17.09;52.83;101745.72;6236716;28;20236;-72
2022/09/03 01:18:36;;;;;;;0.52;0.52;;;;;;;17.20;52.05;101750.94;6232124;28;20236;-72
2022/09/03 01:22:18;;;;;;;1.33;0.80;;;;;;;17.21;52.68;101742.59;6224921;28;20232;-72
2022/09/03 01:25:54;;;;;;;0.50;0.50;;;;;;;17.17;52.42;101737.63;6236065;28;20346;-72
2022/09/03 01:29:23;;;;;;;0.50;0.40;;;;;;;17.03;52.94;101736.31;6230791;28;20539;-72
2022/09/03 01:32:52;;;;;;;0.43;0.40;;;;;;;17.03;52.84;101728.16;6231975;28;20224;-72
2022/09/03 01:36:24;;;;;;;0.57;0.47;;;;;;;16.96;53.11;101731.69;6233741;28;20232;-72
2022/09/03 01:39:56;;;;;;;0.52;0.52;;;;;;;16.76;53.16;101725.50;6233960;28;20224;-73
2022/09/03 01:43:31;;;;;;;0.60;0.60;;;;;;;16.77;53.57;101736.25;6205504;28;20316;-73
2022/09/03 01:47:02;;;;;;;0.63;0.63;;;;;;;16.74;53.67;101730.25;6234739;28;20232;-72
2022/09/03 01:50:36;;;;;;;0.70;0.70;;;;;;;16.78;53.70;101734.38;6239977;28;20223;-72
2022/09/03 01:54:20;;;;;;;0.52;0.52;;;;;;;16.72;53.59;101733.16;6239469;28;20281;-72
2022/09/03 01:57:48;;;;;;;1.00;0.70;;;;;;;16.77;53.71;101727.25;6229025;28;20606;-72
2022/09/03 02:01:17;;;;;;;0.40;0.40;;;;;;;16.72;53.64;101724.13;6207670;28;20570;-73
2022/09/03 02:04:39;;;;;;;0.60;0.60;;;;;;;16.69;54.17;101727.13;6211781;28;20225;-72
2022/09/03 02:08:02;;;;;;;0.50;0.50;;;;;;;16.73;54.28;101725.81;6230424;28;20220;-73
2022/09/03 02:11:24;;;;;;;0.40;0.40;;;;;;;16.59;54.41;101726.34;6203934;28;20548;-73
2022/09/03 02:14:45;;;;;;;1.85;0.50;;;;;;;16.62;53.93;101728.78;6196375;28;20229;-72
2022/09/03 02:18:13;;;;;;;0.65;0.65;;;;;;;16.57;54.01;101731.09;6216215;28;20241;-73
2022/09/03 02:21:39;;;;;;;0.45;0.38;;;;;;;16.55;54.31;101735.84;6210701;28;20563;-72
2022/09/03 02:25:00;;;;;;;0.88;0.50;;;;;;;16.47;54.20;101736.59;6239653;28;20307;-72
2022/09/03 02:28:21;;;;;;;1.03;0.53;;;;;;;16.42;54.56;101727.16;6225888;28;20233;-72
2022/09/03 02:31:43;;;;;;;0.60;0.60;;;;;;;16.52;54.53;101728.00;6210602;28;20247;-73
2022/09/03 02:35:04;;;;;;;0.52;0.52;;;;;;;16.41;54.43;101731.75;6219954;28;20237;-72
2022/09/03 02:38:27;;;;;;;0.40;0.40;;;;;;;16.35;54.60;101724.22;6208615;28;20244;-72
2022/09/03 02:41:51;;;;;;;0.90;0.52;;;;;;;16.43;54.08;101716.13;6215815;28;20607;-72
2022/09/03 02:45:26;;;;;;;0.77;0.77;;;;;;;16.30;54.85;101721.06;6209673;28;20268;-73
2022/09/03 02:48:47;;;;;;;0.45;0.45;;;;;;;16.32;54.54;101723.63;6220759;28;20228;-72
2022/09/03 02:52:11;;;;;;;1.25;0.70;;;;;;;16.29;55.08;101723.97;6231182;28;20511;-73
2022/09/03 02:55:33;;;;;;;0.50;0.45;;;;;;;16.25;55.02;101723.38;6215378;28;20236;-72
2022/09/03 02:58:54;;;;;;;2.80;0.63;;;;;;;16.30;54.73;101728.38;6210922;28;20549;-71
2022/09/03 03:02:15;;;;;;;0.73;0.73;;;;;;;16.20;54.83;101724.84;6219833;28;20232;-72
2022/09/03 03:05:43;;;;;;;1.20;0.90;;;;;;;16.19;55.02;101720.44;6229846;28;20236;-72
2022/09/03 03:09:04;;;;;;;1.65;1.20;;;;;;;16.15;55.50;101724.44;6233639;28;20363;-72
2022/09/03 03:12:28;;;;;;;0.90;0.73;;;;;;;16.13;55.25;101723.75;6216025;28;20229;-73
2022/09/03 03:15:49;;;;;;;0.47;0.47;;;;;;;16.05;55.23;101720.91;6203735;28;20222;-72
2022/09/03 03:19:10;;;;;;;0.73;0.60;;;;;;;16.13;55.28;101718.28;6218662;28;20233;-72
2022/09/03 03:22:31;;;;;;;0.90;0.90;;;;;;;16.17;54.71;101719.72;6223627;28;20229;-73
2022/09/03 03:25:52;;;;;;;2.20;0.90;;;;;;;16.07;55.74;101717.06;6222833;28;20226;-73
2022/09/03 03:29:17;;;;;;;1.77;0.50;;;;;;;16.06;55.45;101718.06;6233744;28;20229;-73
2022/09/03 03:32:39;;;;;;;1.50;1.08;;;;;;;16.02;55.73;101725.66;6234350;28;20275;-72
2022/09/03 03:36:04;;;;;;;0.90;0.90;;;;;;;15.93;55.60;101718.41;6238690;28;20224;-72
2022/09/03 03:39:25;;;;;;;1.13;0.82;;;;;;;15.92;55.49;101719.41;6236455;28;20228;-72
2022/09/03 03:42:46;;;;;;;0.50;0.50;;;;;;;15.90;55.51;101721.44;6205799;28;20460;-72
2022/09/03 03:46:09;;;;;;;0.90;0.80;;;;;;;15.95;55.24;101726.41;6203319;28;20264;-73
2022/09/03 03:49:30;;;;;;;0.77;0.77;;;;;;;15.84;56.22;101743.78;6227536;28;20216;-72
2022/09/03 03:52:51;;;;;;;0.60;0.60;;;;;;;15.79;56.40;101739.81;6229212;28;20626;-72
2022/09/03 03:56:14;;;;;;;5.53;1.67;;;;;;;15.87;56.10;101742.63;6237523;28;20512;-72
2022/09/03 03:59:35;;;;;;;1.20;0.80;;;;;;;15.78;56.07;101743.50;6237568;28;20228;-73
2022/09/03 04:02:59;;;;;;;0.67;0.50;;;;;;;15.78;56.10;101744.38;6231566;28;20253;-72
2022/09/03 04:06:20;;;;;;;1.63;0.60;;;;;;;15.74;56.69;101737.53;6238763;28;20323;-72
2022/09/03 04:09:41;;;;;;;0.50;0.50;;;;;;;15.72;56.25;101742.25;6234283;28;20236;-73
2022/09/03 04:13:02;;;;;;;0.97;0.97;;;;;;;15.75;56.23;101741.09;6239550;28;20240;-73
2022/09/03 04:16:25;;;;;;;1.20;0.87;;;;;;;15.66;56.94;101745.56;6238427;28;20295;-73
2022/09/03 04:19:48;;;;;;;1.73;0.93;;;;;;;15.62;56.41;101744.16;6234138;28;20657;-72
2022/09/03 04:23:09;;;;;;;0.60;0.60;;;;;;;15.66;56.51;101736.56;6238510;28;20507;-73
2022/09/03 04:26:31;;;;;;;0.47;0.47;;;;;;;15.52;56.80;101737.84;6242466;28;20231;-72
2022/09/03 04:29:52;;;;;;;1.27;0.90;;;;;;;15.60;56.38;101732.56;6235119;28;20229;-72
2022/09/03 04:33:13;;;;;;;1.37;1.27;;;;;;;15.55;56.65;101740.31;6235560;28;20232;-72
2022/09/03 04:36:36;;;;;;;0.70;0.70;;;;;;;15.63;56.54;101732.25;6235306;28;20248;-72
2022/09/03 04:39:57;;;;;;;1.30;1.10;;;;;;;15.60;56.66;101731.72;6229932;28;20232;-72
2022/09/03 04:43:18;;;;;;;0.60;0.60;;;;;;;15.57;56.57;101738.28;6234824;28;20225;-73
2022/09/03 04:46:39;;;;;;;0.67;0.67;;;;;;;15.43;57.00;101736.03;6238745;28;20223;-73
2022/09/03 04:50:00;;;;;;;0.70;0.70;;;;;;;15.37;56.80;101747.47;6223673;28;20261;-73
2022/09/03 04:53:23;;;;;;;1.20;1.03;;;;;;;15.45;56.97;101741.31;6220287;28;20241;-72
2022/09/03 04:56:44;;;;;;;1.10;1.00;;;;;;;15.41;56.77;101753.47;6230326;28;20617;-73
2022/09/03 05:00:09;;;;;;;0.87;0.87;;;;;;;15.52;56.25;101756.06;6223330;28;20611;-72
2022/09/03 05:03:30;;;;;;;0.80;0.67;;;;;;;15.59;56.62;101757.16;6243506;28;20252;-73
2022/09/03 05:06:51;;;;;;;3.47;1.13;;;;;;;15.53;55.96;101760.47;6232958;28;20503;-72
2022/09/03 05:10:19;;;;;;;0.63;0.50;;;;;;;15.51;56.06;101751.59;6230750;28;20319;-73
2022/09/03 05:13:40;;;;;;;2.53;0.70;;;;;;;15.57;56.08;101762.75;6234949;28;20657;-72
2022/09/03 05:17:01;;;;;;;0.70;0.50;;;;;;;15.60;56.00;101746.16;6235321;28;20603;-73
2022/09/03 05:20:22;;;;;;;0.80;0.70;;;;;;;15.70;55.70;101749.72;6230144;28;20288;-73
2022/09/03 05:23:45;;;;;;;0.97;0.87;;;;;;;15.70;55.89;101747.00;6233775;28;20765;-73
2022/09/03 05:27:07;;;;;;;1.10;0.83;;;;;;;15.75;55.36;101747.38;6231720;28;20236;-72
2022/09/03 05:30:28;;;;;;;1.23;1.13;;;;;;;15.68;55.08;101746.28;6231533;28;20228;-72
2022/09/03 05:33:51;;;;;;;1.20;0.90;;;;;;;15.66;55.61;101736.56;6223024;28;20233;-73
2022/09/03 05:37:12;;;;;;;0.90;0.70;;;;;;;15.65;55.81;101735.69;6239364;28;20217;-72
2022/09/03 05:40:33;;;;;;;3.27;1.67;;;;;;;15.80;54.98;101736.06;6228777;28;20252;-73
2022/09/03 05:43:57;;;;;;;1.43;0.63;;;;;;;15.84;55.17;101746.50;6212545;28;20542;-73
2022/09/03 05:47:18;;;;;;;0.60;0.60;;;;;;;15.75;55.07;101747.38;6233098;28;20322;-72
2022/09/03 05:50:39;;;;;;;1.37;0.87;;;;;;;15.88;54.48;101744.34;6229517;28;21322;-73
2022/09/03 05:54:01;;;;;;;1.03;0.70;;;;;;;15.87;54.91;101746.19;6236400;28;20533;-73
2022/09/03 05:57:22;;;;;;;1.83;0.63;;;;;;;15.95;54.56;101746.31;6237280;28;20229;-73
2022/09/03 06:00:44;;;;;;;0.70;0.60;;;;;;;15.97;54.83;101738.88;6238525;28;20247;-73
2022/09/03 06:04:07;;;;;;;0.60;0.60;;;;;;;15.87;54.60;101757.06;6233842;28;20244;-72
2022/09/03 06:07:28;;;;;;;0.87;0.63;;;;;;;16.05;54.49;101756.28;6238140;28;20609;-72
2022/09/03 06:10:49;;;;;;;0.60;0.60;;;;;;;16.10;54.52;101753.97;6232306;28;20654;-72
2022/09/03 06:14:12;;;;;;;0.90;0.75;;;;;;;16.00;54.71;101754.88;6233584;28;20266;-72
2022/09/03 06:17:34;;;;;;;1.42;0.57;;;;;;;16.19;54.07;101751.19;6236550;28;20244;-73
2022/09/03 06:20:55;;;;;;;1.52;0.82;;;;;;;16.29;53.95;101749.28;6238459;28;20556;-73
2022/09/03 06:24:17;;;;;;;0.40;0.40;;;;;;;16.37;53.44;101745.81;6227767;28;20314;-72
2022/09/03 06:27:38;;;;;;;0.63;0.50;;;;;;;16.44;53.55;101739.59;6233075;28;20597;-73
2022/09/03 06:31:00;;;;;;;0.57;0.57;;;;;;;16.58;53.10;101741.00;6234265;28;20228;-72
2022/09/03 06:34:24;;;;;;;0.50;0.50;;;;;;;16.41;53.23;101752.66;6232019;28;20518;-73
2022/09/03 06:37:45;;;;;;;0.88;0.40;;;;;;;16.52;53.26;101749.78;6243517;28;20228;-72
2022/09/03 06:41:09;;;;;;;0.43;0.43;;;;;;;16.61;53.38;101746.97;6212283;28;20335;-72
2022/09/03 06:44:30;;;;;;;0.60;0.60;;;;;;;16.67;52.77;101757.25;6221560;28;20229;-73
2022/09/03 06:47:50;;;;;;;2.55;1.15;;;;;;;16.68;53.03;101755.41;6214652;28;20245;-72
2022/09/03 06:51:14;;;;;;;0.98;0.90;;;;;;;16.90;52.70;101756.81;6228059;28;20231;-72
2022/09/03 06:54:39;;;;;;;1.10;0.98;;;;;;;16.81;52.47;101765.91;6230318;28;20598;-72
2022/09/03 06:58:00;;;;;;;0.60;0.60;;;;;;;16.95;52.42;101776.25;6223004;28;20634;-73
2022/09/03 07:01:24;;;;;;;1.13;0.80;;;;;;;16.98;52.48;101762.34;6219255;28;20492;-72
2022/09/03 07:04:45;;;;;;;0.60;0.60;;;;;;;16.85;52.46;101761.88;6223055;28;20529;-72
2022/09/03 07:08:09;;;;;;;0.60;0.60;;;;;;;17.11;51.70;101762.78;6227226;28;20457;-72
2022/09/03 07:11:32;;;;;;;0.73;0.73;;;;;;;17.30;51.88;101758.03;6227547;28;20236;-73
2022/09/03 07:14:53;;;;;;;1.03;1.03;;;;;;;17.44;50.96;101754.72;6226716;28;20236;-72
2022/09/03 07:18:14;;;;;;;1.07;1.00;;;;;;;17.45;51.70;101759.16;6252744;28;20248;-73
2022/09/03 07:21:36;;;;;;;0.77;0.77;;;;;;;17.76;50.80;101761.44;6230104;28;20244;-73
2022/09/03 07:24:59;;;;;;;0.65;0.65;;;;;;;17.92;50.54;101762.41;6231903;28;20686;-73
2022/09/03 07:28:20;;;;;;;0.35;0.35;;;;;;;17.84;50.50;101759.63;6233002;28;20232;-73
2022/09/03 07:31:43;;;;;;;1.05;0.70;;;;;;;17.89;50.47;101759.16;6230831;28;20553;-72
2022/09/03 07:35:04;;;;;;;2.65;0.93;;;;;;;17.91;50.60;101757.09;6237899;28;20228;-72
2022/09/03 07:38:25;;;;;;;3.05;0.50;;;;;;;18.18;50.11;101751.44;6221520;28;20235;-73
2022/09/03 07:41:49;;;;;;;1.27;1.17;;;;;;;18.22;50.05;101756.41;6226568;28;20232;-73
2022/09/03 07:45:10;;;;;;;1.83;0.65;;;;;;;18.26;49.74;101760.53;6225478;28;20237;-73
2022/09/03 07:48:31;;;;;;;1.75;1.05;;;;;;;18.43;49.33;101755.13;6228969;28;20312;-72
2022/09/03 07:51:53;;;;;;;0.95;0.77;;;;;;;18.50;49.41;101751.63;6237376;28;20232;-73
2022/09/03 07:55:14;;;;;;;0.95;0.95;;;;;;;18.68;48.57;101748.75;6204427;28;20626;-73
2022/09/03 07:58:38;;;;;;;2.63;1.95;;;;;;;18.59;48.61;101747.88;6235969;28;20393;-74
2022/09/03 08:01:59;;;;;;;3.17;1.05;;;;;;;18.78;48.51;101750.31;6236751;28;20228;-73
2022/09/03 08:05:21;;;;;;;2.30;1.35;;;;;;;18.85;48.04;101759.56;6232270;28;20232;-74
2022/09/03 08:08:44;;;;;;;0.60;0.60;;;;;;;18.81;47.73;101747.25;6239972;28;20506;-72
2022/09/03 08:12:05;;;;;;;1.15;1.10;;;;;;;18.94;47.74;101744.03;6232857;28;20345;-72
2022/09/03 08:15:27;;;;;;;3.42;2.15;;;;;;;19.23;47.57;101741.66;6237471;28;20344;-72
2022/09/03 08:18:50;;;;;;;0.60;0.60;;;;;;;19.43;46.98;101753.09;6240879;28;20221;-72
2022/09/03 08:22:11;;;;;;;1.35;0.60;;;;;;;19.39;46.59;101747.13;6239738;28;20232;-72
2022/09/03 08:25:32;;;;;;;2.20;0.98;;;;;;;19.58;46.60;101745.91;6231440;28;20418;-72
2022/09/03 08:28:53;;;;;;;1.85;0.77;;;;;;;19.72;46.11;101747.94;6238473;28;20311;-73
2022/09/03 08:32:15;;;;;;;1.00;1.00;;;;;;;19.61;46.00;101746.41;6238673;28;20228;-74
2022/09/03 08:35:37;;;;;;;1.70;1.08;;;;;;;19.83;45.80;101740.22;6237750;28;20223;-73
2022/09/03 08:39:02;;;;;;;2.35;0.82;;;;;;;20.09;45.45;101741.84;6238595;28;20232;-72
2022/09/03 08:42:43;;;;;;;3.90;0.95;;;;;;;19.96;45.51;101739.69;6219994;28;20224;-73
2022/09/03 08:46:04;;;;;;;2.80;1.40;;;;;;;19.76;46.07;101744.69;6215013;28;20237;-72
2022/09/03 08:49:31;;;;;;;0.90;0.90;;;;;;;19.31;47.16;101740.78;6219558;28;20592;-73
2022/09/03 08:52:56;;;;;;;1.75;0.60;;;;;;;19.20;47.27;101741.13;6236035;28;20589;-73
2022/09/03 08:56:24;;;;;;;1.17;0.73;;;;;;;19.19;47.32;101740.28;6261351;28;20439;-72
2022/09/03 08:59:46;;;;;;;0.98;0.93;;;;;;;19.61;46.53;101742.84;6229577;28;20231;-72
2022/09/03 09:03:39;;;;;;;1.02;0.63;;;;;;;19.94;45.34;101747.22;6234754;28;20619;-72
2022/09/03 09:07:09;;;;;;;0.82;0.60;;;;;;;20.35;45.06;101736.97;6233457;28;20237;-72
2022/09/03 09:10:37;;;;;;;1.48;1.05;;;;;;;20.63;44.01;101730.00;6245486;28;20655;-73
2022/09/03 09:14:03;;;;;;;1.08;0.98;;;;;;;20.69;43.79;101734.75;6231425;28;20530;-73
2022/09/03 09:17:37;;;;;;;2.75;0.95;;;;;;;20.75;43.86;101733.16;6237627;28;20236;-72
2022/09/03 09:21:07;;;;;;;2.92;1.60;;;;;;;20.94;43.26;101739.03;6235128;28;20240;-73
2022/09/03 09:24:38;;;;;;;3.60;0.90;;;;;;;21.13;42.99;101740.47;6244045;28;20512;-74
2022/09/03 09:28:02;;;;;;;0.70;0.70;;;;;;;21.27;42.16;101726.78;6240051;28;20247;-73
2022/09/03 09:31:22;;;;;;;1.15;0.90;;;;;;;21.36;41.66;101730.31;6230564;28;20232;-73
2022/09/03 09:34:43;;;;;;;1.35;1.00;;;;;;;21.33;41.36;101720.56;6238310;28;20545;-73
2022/09/03 09:38:04;;;;;;;0.55;0.55;;;;;;;21.30;41.37;101725.53;6243078;28;20240;-74
2022/09/03 09:41:28;;;;;;;1.00;0.45;;;;;;;21.08;40.97;101708.09;6210349;28;20233;-73
2022/09/03 09:44:48;;;;;;;1.55;1.02;;;;;;;21.28;41.04;101722.13;6212535;28;20236;-72
2022/09/03 09:48:16;;;;;;;1.85;0.93;;;;;;;21.52;39.16;101705.47;6234786;28;20224;-73
2022/09/03 09:51:39;;;;;;;1.00;0.82;;;;;;;21.32;39.65;101702.38;6229374;28;20235;-74
2022/09/03 09:55:08;;;;;;;4.05;1.05;;;;;;;21.41;38.96;101706.75;6233101;28;20697;-74
2022/09/03 09:58:33;;;;;;;0.93;0.90;;;;;;;21.69;38.28;101712.50;6234524;28;20239;-73
2022/09/03 10:02:07;;;;;;;4.60;1.05;;;;;;;21.95;37.98;101712.03;6233525;28;20256;-73
2022/09/03 10:05:32;;;;;;;0.40;0.40;;;;;;;21.85;36.94;101701.34;6215071;28;20237;-73
2022/09/03 10:09:05;;;;;;;1.27;1.08;;;;;;;22.02;36.24;101696.50;6211185;28;20615;-72
2022/09/03 10:12:31;;;;;;;1.25;0.75;;;;;;;21.89;36.26;101702.66;6207103;28;20225;-72
2022/09/03 10:15:58;;;;;;;1.40;0.52;;;;;;;22.04;36.26;101694.44;6203762;28;20240;-72
2022/09/03 10:19:24;;;;;;;0.80;0.70;;;;;;;22.04;36.01;101691.69;6206417;28;20258;-72
2022/09/03 10:22:52;;;;;;;0.57;0.43;;;;;;;21.89;35.84;101691.69;6236554;28;20419;-72
2022/09/03 10:26:16;;;;;;;0.85;0.68;;;;;;;22.24;35.76;101695.53;6233383;28;20224;-73
2022/09/03 10:29:39;;;;;;;0.93;0.80;;;;;;;22.58;35.82;101689.38;6233149;28;20236;-72
2022/09/03 10:33:11;;;;;;;0.85;0.80;;;;;;;22.78;34.91;101683.06;6217096;28;20225;-72
2022/09/03 10:36:39;;;;;;;1.70;0.47;;;;;;;22.65;36.21;101687.59;6230298;28;20248;-73
2022/09/03 10:40:19;;;;;;;1.00;0.73;;;;;;;22.92;35.02;101671.19;6225512;28;20551;-73
2022/09/03 10:43:58;;;;;;;1.83;0.70;;;;;;;22.89;35.73;101673.44;6214855;28;20224;-73
2022/09/03 10:47:35;;;;;;;1.38;0.70;;;;;;;23.18;33.28;101673.28;6227472;28;20228;-71
2022/09/03 10:51:02;;;;;;;1.55;1.38;;;;;;;23.31;33.31;101678.91;6210459;28;20319;-72
2022/09/03 10:54:37;;;;;;;0.57;0.57;;;;;;;23.02;34.15;101662.59;6224099;28;20326;-72
2022/09/03 10:58:13;;;;;;;0.95;0.50;;;;;;;23.87;34.01;101676.13;6218313;28;20245;-71
2022/09/03 11:01:42;;;;;;;1.20;0.88;;;;;;;24.34;33.36;101666.03;6235274;28;20364;-72
2022/09/03 11:05:09;;;;;;;1.55;0.60;;;;;;;23.69;32.77;101650.00;6216152;28;20543;-71
2022/09/03 11:08:36;;;;;;;2.95;0.88;;;;;;;24.19;32.05;101648.78;6233374;28;20224;-72
2022/09/03 11:12:00;;;;;;;0.60;0.60;;;;;;;25.08;30.59;101665.97;6237786;28;20225;-72
2022/09/03 11:15:27;;;;;;;1.95;1.00;;;;;;;25.19;30.23;101657.06;6212511;28;20228;-72
2022/09/03 11:18:53;;;;;;;2.85;1.23;;;;;;;25.81;29.42;101653.81;6245302;28;20224;-71
2022/09/03 11:22:17;;;;;;;1.20;0.85;;;;;;;24.95;29.64;101657.72;6222762;28;20245;-71
2022/09/03 11:25:43;;;;;;;3.28;0.95;;;;;;;29.80;23.18;101636.47;6253938;28;20550;-72
2022/09/03 11:29:11;;;;;;;2.40;1.13;;;;;;;33.64;19.49;101639.16;6248101;28;20251;-72
2022/09/03 11:32:47;;;;;;;2.83;1.20;;;;;;;30.19;22.50;101629.22;6229227;28;20231;-72
2022/09/03 11:36:08;;;;;;;1.65;0.98;;;;;;;27.44;25.08;101640.94;6229932;28;20270;-72
2022/09/03 11:39:35;;;;;;;0.65;0.40;;;;;;;26.51;26.97;101639.94;6230341;28;20227;-72
2022/09/03 11:43:06;;;;;;;0.82;0.52;;;;;;;24.32;29.77;101646.06;6244059;28;20229;-71
2022/09/03 11:46:30;;;;;;;1.13;1.02;;;;;;;31.35;21.58;101640.66;6229522;28;20500;-72
2022/09/03 11:49:53;;;;;;;3.40;1.05;;;;;;;30.65;21.26;101625.44;6242563;28;20232;-71
2022/09/03 11:53:27;;;;;;;1.08;0.70;;;;;;;27.53;24.55;101631.28;6240110;28;20225;-72
2022/09/03 11:56:49;;;;;;;1.75;0.50;;;;;;;26.02;26.92;101623.13;6215183;28;20542;-71
2022/09/03 12:00:16;;;;;;;0.50;0.50;;;;;;;28.98;23.07;101625.50;6231318;28;20221;-71
2022/09/03 12:03:44;;;;;;;0.80;0.50;;;;;;;30.53;21.23;101617.16;6238139;28;20229;-73
2022/09/03 12:07:38;;;;;;;2.15;1.45;;;;;;;32.25;20.13;101621.56;6235962;28;20231;-73
2022/09/03 12:11:12;;;;;;;0.40;0.40;;;;;;;31.50;20.73;101620.56;6236685;28;20610;-72
2022/09/03 12:14:45;;;;;;;1.15;0.55;;;;;;;31.00;21.30;101620.53;6248387;28;20224;-73
2022/09/03 12:18:21;;;;;;;1.40;0.75;;;;;;;29.53;21.75;101606.63;6247047;28;20591;-72
2022/09/03 12:21:43;;;;;;;1.63;1.35;;;;;;;32.19;20.01;101611.44;6238679;28;20335;-72
2022/09/03 12:25:09;;;;;;;2.10;0.73;;;;;;;31.58;20.45;101620.09;6233793;28;20236;-72
2022/09/03 12:28:32;;;;;;;1.10;0.68;;;;;;;32.79;19.60;101625.28;6230183;28;20236;-71
2022/09/03 12:31:55;;;;;;;2.50;1.02;;;;;;;31.63;19.81;101620.16;6230965;28;20601;-72
2022/09/03 12:35:20;;;;;;;0.40;0.40;;;;;;;32.39;19.54;101602.47;6241940;28;20228;-72
2022/09/03 12:38:40;;;;;;;1.23;0.57;;;;;;;33.10;18.76;101603.19;6240494;28;20315;-71
2022/09/03 12:42:05;;;;;;;2.25;0.73;;;;;;;32.26;19.50;101608.47;6219195;28;20229;-73
2022/09/03 12:45:27;;;;;;;0.50;0.50;;;;;;;30.56;20.69;101602.72;6222993;28;20220;-73
2022/09/03 12:48:53;;;;;;;0.52;0.50;;;;;;;31.14;20.14;101602.41;6245807;28;20236;-72
2022/09/03 12:52:20;;;;;;;0.43;0.30;;;;;;;32.56;19.08;101599.63;6230146;28;20225;-72
2022/09/03 12:55:45;;;;;;;0.40;0.40;;;;;;;32.27;18.58;101587.84;6228361;28;20454;-72
2022/09/03 12:59:11;;;;;;;0.40;0.40;;;;;;;34.40;17.25;101589.13;6229156;28;20637;-73
2022/09/03 13:02:45;;;;;;;2.10;0.70;;;;;;;33.18;18.14;101578.41;6235018;28;20245;-73
2022/09/03 13:06:10;;;;;;;0.73;0.73;;;;;;;29.14;22.75;101577.63;6229965;28;20568;-72
2022/09/03 13:09:36;;;;;;;0.30;0.30;;;;;;;33.19;18.37;101571.69;6233349;28;20228;-72
2022/09/03 13:13:01;;;;;;;1.15;1.15;;;;;;;35.15;17.23;101574.38;6235359;28;20217;-73
2022/09/03 13:17:02;;;;;;;0.52;0.52;;;;;;;32.33;18.78;101571.97;6240680;28;20228;-73
2022/09/03 13:20:46;;;;;;;0.43;0.43;;;;;;;32.94;18.65;101572.28;6238346;28;21849;-72
2022/09/03 13:24:46;;;;;;;1.52;0.50;;;;;;;31.46;19.50;101577.53;6234664;28;20252;-73
2022/09/03 13:28:23;;;;;;;0.63;0.63;;;;;;;33.52;18.07;101564.94;6225627;28;20311;-72
2022/09/03 13:31:49;;;;;;;1.33;0.68;;;;;;;32.71;18.75;101574.63;6229006;28;20600;-72
2022/09/03 13:35:16;;;;;;;1.10;0.90;;;;;;;33.71;18.48;101566.16;6231208;28;20220;-73
2022/09/03 13:38:43;;;;;;;0.60;0.60;;;;;;;33.77;18.32;101568.69;6226445;28;20225;-72
2022/09/03 13:42:13;;;;;;;0.47;0.47;;;;;;;33.71;18.13;101561.38;6217192;28;20244;-72
2022/09/03 13:45:37;;;;;;;0.93;0.70;;;;;;;31.50;19.16;101582.34;6222267;28;20231;-71
2022/09/03 13:52:55;;;;;;;0.47;0.43;;;;;;;31.65;19.11;101575.31;6230631;28;20518;-72
2022/09/03 13:56:24;;;;;;;0.50;0.50;;;;;;;29.55;21.55;101560.81;6235723;28;20231;-72
2022/09/03 13:59:52;;;;;;;0.80;0.80;;;;;;;29.79;21.60;101567.22;6233631;28;20236;-72
2022/09/03 14:03:25;;;;;;;0.52;0.45;;;;;;;32.03;19.78;101561.28;6236325;28;20326;-72
2022/09/03 14:06:55;;;;;;;0.77;0.60;;;;;;;33.05;18.08;101557.34;6237611;28;20236;-73
2022/09/03 14:10:23;;;;;;;0.60;0.60;;;;;;;32.33;18.31;101578.41;6230455;28;20236;-72
2022/09/03 14:14:02;;;;;;;0.68;0.68;;;;;;;28.60;22.65;101573.16;6236854;28;20228;-73
2022/09/03 14:17:36;;;;;;;0.98;0.75;;;;;;;29.03;22.13;101557.06;6239128;28;20225;-72
2022/09/03 14:21:02;;;;;;;1.23;0.55;;;;;;;30.36;20.41;101548.59;6238616;28;20224;-73
2022/09/03 14:24:27;;;;;;;0.98;0.93;;;;;;;28.92;22.52;101545.94;6229625;28;20232;-72
2022/09/03 14:27:48;;;;;;;6.47;2.00;;;;;;;30.35;20.60;101547.78;6237016;28;20959;-72
2022/09/03 14:31:19;;;;;;;0.47;0.47;;;;;;;28.18;23.26;101547.31;6231604;28;20492;-72
2022/09/03 14:34:55;;;;;;;1.58;0.55;;;;;;;26.79;24.52;101534.38;6232042;28;20224;-73
2022/09/03 14:38:46;;;;;;;2.35;0.73;;;;;;;27.36;24.94;101538.75;6237098;28;20268;-72
2022/09/03 14:42:29;;;;;;;1.00;1.00;;;;;;;28.96;22.98;101545.22;6228484;28;20615;-73
2022/09/03 14:46:08;;;;;;;1.35;1.25;;;;;;;27.84;23.75;101552.66;6215520;28;20228;-73
2022/09/03 14:49:53;;;;;;;0.63;0.52;;;;;;;27.97;24.37;101547.84;6220182;28;20228;-72
2022/09/03 14:53:28;;;;;;;0.65;0.30;;;;;;;27.51;23.81;101555.84;6240295;28;20236;-72
2022/09/03 14:56:56;;;;;;;0.50;0.50;;;;;;;27.20;24.36;101556.81;6219198;28;20367;-73
2022/09/03 15:00:20;;;;;;;0.52;0.52;;;;;;;26.52;24.95;101542.03;6223093;28;20478;-75
2022/09/03 15:04:04;;;;;;;1.67;1.48;;;;;;;26.49;26.03;101539.75;6227087;28;20233;-72
2022/09/03 15:07:33;;;;;;;0.68;0.55;;;;;;;27.42;25.77;101555.31;6225564;28;20252;-73
2022/09/03 15:10:59;;;;;;;0.77;0.60;;;;;;;27.33;24.55;101544.72;6222935;28;20266;-73
2022/09/03 15:14:26;;;;;;;1.05;0.80;;;;;;;27.38;24.65;101547.69;6225884;28;20228;-73
2022/09/03 15:17:59;;;;;;;1.30;0.80;;;;;;;27.73;24.20;101545.97;6241969;28;20239;-73
2022/09/03 15:21:30;;;;;;;2.30;0.77;;;;;;;27.72;24.02;101532.38;6231526;28;20251;-73
2022/09/03 15:24:58;;;;;;;0.52;0.52;;;;;;;27.73;24.82;101539.59;6238587;28;20603;-73
2022/09/03 15:28:27;;;;;;;0.95;0.85;;;;;;;27.11;24.67;101547.09;6238364;28;20602;-74
2022/09/03 15:31:58;;;;;;;1.85;0.32;;;;;;;27.17;25.40;101539.78;6232679;28;20569;-74
2022/09/03 15:35:37;;;;;;;0.70;0.60;;;;;;;27.27;25.08;101545.63;6235452;28;20227;-73
2022/09/03 15:39:01;;;;;;;1.75;0.70;;;;;;;27.47;24.54;101555.44;6210385;28;20225;-72
2022/09/03 15:42:27;;;;;;;0.68;0.68;;;;;;;27.25;25.17;101550.56;6212375;28;20232;-72
2022/09/03 15:45:57;;;;;;;1.00;0.85;;;;;;;27.51;24.88;101551.16;6229987;28;20221;-73
2022/09/03 15:49:26;;;;;;;3.47;0.60;;;;;;;27.67;24.40;101552.47;6211697;28;20241;-73
2022/09/03 15:52:56;;;;;;;0.95;0.82;;;;;;;27.31;24.88;101547.72;6218428;28;20329;-74
2022/09/03 15:56:22;;;;;;;1.85;0.88;;;;;;;27.25;24.86;101554.19;6218305;28;20637;-73
2022/09/03 15:59:54;;;;;;;0.70;0.50;;;;;;;27.30;24.90;101545.19;6225093;28;20239;-73
2022/09/03 16:03:20;;;;;;;1.92;1.70;;;;;;;27.01;25.12;101545.91;6228671;28;20237;-73